sensor_id;sensor_type;location;lat;lon;timestamp;P1;durP1;ratioP1;P2;durP2;ratioP2
44228;SDS011;29904;51.058;5.378;2023-04-24T00:00:46;7.15;;;4.85;;
44228;SDS011;29904;51.058;5.378;2023-04-24T00:03:12;8.18;;;4.80;;
44228;SDS011;29904;51.058;5.378;2023-04-24T00:05:38;8.20;;;5.03;;
44228;SDS011;29904;51.058;5.378;2023-04-24T00:08:05;8.57;;;5.40;;
44228;SDS011;29904;51.058;5.378;2023-04-24T00:10:31;9.60;;;5.57;;
44228;SDS011;29904;51.058;5.378;2023-04-24T00:12:57;9.48;;;5.30;;
44228;SDS011;29904;51.058;5.378;2023-04-24T00:15:22;9.00;;;5.60;;
44228;SDS011;29904;51.058;5.378;2023-04-24T00:17:48;7.93;;;5.95;;
44228;SDS011;29904;51.058;5.378;2023-04-24T00:20:14;10.13;;;5.88;;
44228;SDS011;29904;51.058;5.378;2023-04-24T00:22:40;10.00;;;6.00;;
44228;SDS011;29904;51.058;5.378;2023-04-24T00:25:06;11.13;;;6.50;;
44228;SDS011;29904;51.058;5.378;2023-04-24T00:27:32;8.67;;;6.03;;
44228;SDS011;29904;51.058;5.378;2023-04-24T00:30:00;10.40;;;6.70;;
44228;SDS011;29904;51.058;5.378;2023-04-24T00:32:25;9.85;;;6.68;;
44228;SDS011;29904;51.058;5.378;2023-04-24T00:34:51;11.02;;;7.13;;
44228;SDS011;29904;51.058;5.378;2023-04-24T00:37:17;10.90;;;7.10;;
44228;SDS011;29904;51.058;5.378;2023-04-24T00:39:42;10.75;;;6.80;;
44228;SDS011;29904;51.058;5.378;2023-04-24T00:42:08;10.53;;;7.37;;
44228;SDS011;29904;51.058;5.378;2023-04-24T00:44:34;11.43;;;7.17;;
44228;SDS011;29904;51.058;5.378;2023-04-24T00:47:00;13.20;;;8.10;;
44228;SDS011;29904;51.058;5.378;2023-04-24T00:49:26;11.77;;;7.43;;
44228;SDS011;29904;51.058;5.378;2023-04-24T00:51:52;10.93;;;7.32;;
44228;SDS011;29904;51.058;5.378;2023-04-24T00:54:19;14.32;;;7.03;;
44228;SDS011;29904;51.058;5.378;2023-04-24T00:56:45;13.40;;;8.20;;
44228;SDS011;29904;51.058;5.378;2023-04-24T00:59:11;12.45;;;7.97;;
44228;SDS011;29904;51.058;5.378;2023-04-24T01:01:38;13.80;;;8.35;;
44228;SDS011;29904;51.058;5.378;2023-04-24T01:04:08;14.40;;;8.18;;
44228;SDS011;29904;51.058;5.378;2023-04-24T01:06:36;12.88;;;8.13;;
44228;SDS011;29904;51.058;5.378;2023-04-24T01:09:04;15.13;;;8.27;;
44228;SDS011;29904;51.058;5.378;2023-04-24T01:11:33;12.80;;;8.60;;
44228;SDS011;29904;51.058;5.378;2023-04-24T01:14:00;15.60;;;9.43;;
44228;SDS011;29904;51.058;5.378;2023-04-24T01:16:26;13.52;;;8.60;;
44228;SDS011;29904;51.058;5.378;2023-04-24T01:18:52;15.27;;;8.77;;
44228;SDS011;29904;51.058;5.378;2023-04-24T01:21:18;16.67;;;9.20;;
44228;SDS011;29904;51.058;5.378;2023-04-24T01:23:46;14.25;;;8.45;;
44228;SDS011;29904;51.058;5.378;2023-04-24T01:26:12;12.15;;;7.90;;
44228;SDS011;29904;51.058;5.378;2023-04-24T01:28:40;11.93;;;8.30;;
44228;SDS011;29904;51.058;5.378;2023-04-24T01:31:06;12.63;;;8.73;;
44228;SDS011;29904;51.058;5.378;2023-04-24T01:33:32;12.75;;;8.90;;
44228;SDS011;29904;51.058;5.378;2023-04-24T01:35:58;17.40;;;9.60;;
44228;SDS011;29904;51.058;5.378;2023-04-24T01:38:24;13.45;;;8.65;;
44228;SDS011;29904;51.058;5.378;2023-04-24T01:40:50;15.52;;;8.63;;
44228;SDS011;29904;51.058;5.378;2023-04-24T01:43:16;14.43;;;9.27;;
44228;SDS011;29904;51.058;5.378;2023-04-24T01:45:43;14.32;;;9.15;;
44228;SDS011;29904;51.058;5.378;2023-04-24T01:48:08;13.33;;;8.70;;
44228;SDS011;29904;51.058;5.378;2023-04-24T01:50:34;13.87;;;8.83;;
44228;SDS011;29904;51.058;5.378;2023-04-24T01:53:00;16.17;;;9.40;;
44228;SDS011;29904;51.058;5.378;2023-04-24T01:55:26;12.17;;;8.27;;
44228;SDS011;29904;51.058;5.378;2023-04-24T01:57:52;14.82;;;8.60;;
44228;SDS011;29904;51.058;5.378;2023-04-24T02:00:21;15.60;;;8.93;;
44228;SDS011;29904;51.058;5.378;2023-04-24T02:02:46;14.23;;;9.07;;
44228;SDS011;29904;51.058;5.378;2023-04-24T02:05:12;15.13;;;9.13;;
44228;SDS011;29904;51.058;5.378;2023-04-24T02:07:38;13.70;;;8.73;;
44228;SDS011;29904;51.058;5.378;2023-04-24T02:10:04;15.00;;;9.05;;
44228;SDS011;29904;51.058;5.378;2023-04-24T02:12:31;16.10;;;8.80;;
44228;SDS011;29904;51.058;5.378;2023-04-24T02:14:57;13.02;;;8.10;;
44228;SDS011;29904;51.058;5.378;2023-04-24T02:17:23;13.32;;;8.45;;
44228;SDS011;29904;51.058;5.378;2023-04-24T02:19:49;13.23;;;8.57;;
44228;SDS011;29904;51.058;5.378;2023-04-24T02:22:15;17.63;;;8.77;;
44228;SDS011;29904;51.058;5.378;2023-04-24T02:24:40;13.00;;;8.38;;
44228;SDS011;29904;51.058;5.378;2023-04-24T02:27:06;13.23;;;8.13;;
44228;SDS011;29904;51.058;5.378;2023-04-24T02:29:32;13.10;;;8.23;;
44228;SDS011;29904;51.058;5.378;2023-04-24T02:31:58;13.50;;;8.38;;
44228;SDS011;29904;51.058;5.378;2023-04-24T02:34:23;16.40;;;8.57;;
44228;SDS011;29904;51.058;5.378;2023-04-24T02:36:49;10.35;;;8.00;;
44228;SDS011;29904;51.058;5.378;2023-04-24T02:39:15;12.87;;;8.43;;
44228;SDS011;29904;51.058;5.378;2023-04-24T02:41:41;13.00;;;8.88;;
44228;SDS011;29904;51.058;5.378;2023-04-24T02:44:07;12.97;;;8.80;;
44228;SDS011;29904;51.058;5.378;2023-04-24T02:46:33;12.50;;;7.83;;
44228;SDS011;29904;51.058;5.378;2023-04-24T02:48:59;10.57;;;7.50;;
44228;SDS011;29904;51.058;5.378;2023-04-24T02:51:25;11.20;;;8.03;;
44228;SDS011;29904;51.058;5.378;2023-04-24T02:53:51;13.07;;;7.88;;
44228;SDS011;29904;51.058;5.378;2023-04-24T02:56:17;11.82;;;7.18;;
44228;SDS011;29904;51.058;5.378;2023-04-24T02:58:43;10.57;;;6.53;;
44228;SDS011;29904;51.058;5.378;2023-04-24T03:01:09;9.88;;;7.03;;
44228;SDS011;29904;51.058;5.378;2023-04-24T03:03:35;10.35;;;6.38;;
44228;SDS011;29904;51.058;5.378;2023-04-24T03:06:01;9.63;;;6.80;;
44228;SDS011;29904;51.058;5.378;2023-04-24T03:08:27;10.48;;;7.07;;
44228;SDS011;29904;51.058;5.378;2023-04-24T03:10:53;10.45;;;6.38;;
44228;SDS011;29904;51.058;5.378;2023-04-24T03:13:19;10.50;;;6.82;;
44228;SDS011;29904;51.058;5.378;2023-04-24T03:15:44;12.88;;;7.32;;
44228;SDS011;29904;51.058;5.378;2023-04-24T03:18:11;10.50;;;7.03;;
44228;SDS011;29904;51.058;5.378;2023-04-24T03:20:37;9.88;;;7.38;;
44228;SDS011;29904;51.058;5.378;2023-04-24T03:23:03;11.82;;;7.47;;
44228;SDS011;29904;51.058;5.378;2023-04-24T03:25:29;11.98;;;7.55;;
44228;SDS011;29904;51.058;5.378;2023-04-24T03:27:55;11.43;;;7.70;;
44228;SDS011;29904;51.058;5.378;2023-04-24T03:30:20;9.90;;;7.97;;
44228;SDS011;29904;51.058;5.378;2023-04-24T03:32:46;11.80;;;7.82;;
44228;SDS011;29904;51.058;5.378;2023-04-24T03:35:12;12.32;;;8.68;;
44228;SDS011;29904;51.058;5.378;2023-04-24T03:37:38;14.70;;;9.00;;
44228;SDS011;29904;51.058;5.378;2023-04-24T03:40:03;12.15;;;8.20;;
44228;SDS011;29904;51.058;5.378;2023-04-24T03:42:31;12.35;;;9.10;;
44228;SDS011;29904;51.058;5.378;2023-04-24T03:44:56;13.35;;;9.15;;
44228;SDS011;29904;51.058;5.378;2023-04-24T03:47:22;13.20;;;9.02;;
44228;SDS011;29904;51.058;5.378;2023-04-24T03:49:48;13.55;;;9.18;;
44228;SDS011;29904;51.058;5.378;2023-04-24T03:52:13;14.15;;;8.80;;
44228;SDS011;29904;51.058;5.378;2023-04-24T03:54:39;15.00;;;9.40;;
44228;SDS011;29904;51.058;5.378;2023-04-24T03:57:05;13.98;;;9.38;;
44228;SDS011;29904;51.058;5.378;2023-04-24T03:59:30;12.47;;;8.90;;
44228;SDS011;29904;51.058;5.378;2023-04-24T04:01:56;12.17;;;8.87;;
44228;SDS011;29904;51.058;5.378;2023-04-24T04:04:22;13.20;;;9.40;;
44228;SDS011;29904;51.058;5.378;2023-04-24T04:06:48;13.63;;;9.27;;
44228;SDS011;29904;51.058;5.378;2023-04-24T04:09:14;13.43;;;8.63;;
44228;SDS011;29904;51.058;5.378;2023-04-24T04:11:40;15.10;;;9.02;;
44228;SDS011;29904;51.058;5.378;2023-04-24T04:14:06;11.43;;;8.63;;
44228;SDS011;29904;51.058;5.378;2023-04-24T04:16:31;12.70;;;8.23;;
44228;SDS011;29904;51.058;5.378;2023-04-24T04:18:57;11.55;;;8.02;;
44228;SDS011;29904;51.058;5.378;2023-04-24T04:21:23;11.50;;;8.32;;
44228;SDS011;29904;51.058;5.378;2023-04-24T04:23:49;12.13;;;8.57;;
44228;SDS011;29904;51.058;5.378;2023-04-24T04:26:15;13.63;;;8.03;;
44228;SDS011;29904;51.058;5.378;2023-04-24T04:28:41;11.07;;;8.60;;
44228;SDS011;29904;51.058;5.378;2023-04-24T04:31:06;11.83;;;8.00;;
44228;SDS011;29904;51.058;5.378;2023-04-24T04:33:33;12.50;;;7.93;;
44228;SDS011;29904;51.058;5.378;2023-04-24T04:35:59;14.07;;;8.10;;
44228;SDS011;29904;51.058;5.378;2023-04-24T04:38:25;12.55;;;8.32;;
44228;SDS011;29904;51.058;5.378;2023-04-24T04:40:54;13.77;;;8.38;;
44228;SDS011;29904;51.058;5.378;2023-04-24T04:43:22;12.13;;;8.27;;
44228;SDS011;29904;51.058;5.378;2023-04-24T04:45:49;12.38;;;7.90;;
44228;SDS011;29904;51.058;5.378;2023-04-24T04:48:16;11.23;;;7.97;;
44228;SDS011;29904;51.058;5.378;2023-04-24T04:50:43;12.48;;;7.70;;
44228;SDS011;29904;51.058;5.378;2023-04-24T04:53:08;11.00;;;7.43;;
44228;SDS011;29904;51.058;5.378;2023-04-24T04:55:34;11.40;;;7.65;;
44228;SDS011;29904;51.058;5.378;2023-04-24T04:58:00;11.43;;;7.85;;
44228;SDS011;29904;51.058;5.378;2023-04-24T05:00:26;11.50;;;8.00;;
44228;SDS011;29904;51.058;5.378;2023-04-24T05:02:54;12.27;;;8.27;;
44228;SDS011;29904;51.058;5.378;2023-04-24T05:05:19;12.43;;;7.30;;
44228;SDS011;29904;51.058;5.378;2023-04-24T05:07:45;9.93;;;7.50;;
44228;SDS011;29904;51.058;5.378;2023-04-24T05:10:11;10.07;;;6.90;;
44228;SDS011;29904;51.058;5.378;2023-04-24T05:12:37;7.27;;;5.40;;
44228;SDS011;29904;51.058;5.378;2023-04-24T05:15:03;7.17;;;5.20;;
44228;SDS011;29904;51.058;5.378;2023-04-24T05:17:29;7.85;;;5.00;;
44228;SDS011;29904;51.058;5.378;2023-04-24T05:19:54;6.97;;;4.30;;
44228;SDS011;29904;51.058;5.378;2023-04-24T05:22:20;8.32;;;4.80;;
44228;SDS011;29904;51.058;5.378;2023-04-24T05:24:46;7.18;;;5.22;;
44228;SDS011;29904;51.058;5.378;2023-04-24T05:27:12;6.30;;;4.40;;
44228;SDS011;29904;51.058;5.378;2023-04-24T05:29:38;5.65;;;4.20;;
44228;SDS011;29904;51.058;5.378;2023-04-24T05:32:05;6.60;;;4.20;;
44228;SDS011;29904;51.058;5.378;2023-04-24T05:34:31;5.70;;;3.25;;
44228;SDS011;29904;51.058;5.378;2023-04-24T05:36:57;5.20;;;3.33;;
44228;SDS011;29904;51.058;5.378;2023-04-24T05:39:23;4.00;;;2.63;;
44228;SDS011;29904;51.058;5.378;2023-04-24T05:41:50;3.75;;;2.60;;
44228;SDS011;29904;51.058;5.378;2023-04-24T05:44:15;3.30;;;2.33;;
44228;SDS011;29904;51.058;5.378;2023-04-24T05:46:41;5.10;;;2.70;;
44228;SDS011;29904;51.058;5.378;2023-04-24T05:49:07;6.80;;;3.83;;
44228;SDS011;29904;51.058;5.378;2023-04-24T05:51:33;5.93;;;3.43;;
44228;SDS011;29904;51.058;5.378;2023-04-24T05:53:59;4.30;;;3.13;;
44228;SDS011;29904;51.058;5.378;2023-04-24T05:56:24;4.22;;;3.00;;
44228;SDS011;29904;51.058;5.378;2023-04-24T05:58:50;4.87;;;2.93;;
44228;SDS011;29904;51.058;5.378;2023-04-24T06:01:16;4.70;;;3.10;;
44228;SDS011;29904;51.058;5.378;2023-04-24T06:03:42;4.90;;;3.00;;
44228;SDS011;29904;51.058;5.378;2023-04-24T06:06:08;6.60;;;3.57;;
44228;SDS011;29904;51.058;5.378;2023-04-24T06:08:34;5.95;;;3.88;;
44228;SDS011;29904;51.058;5.378;2023-04-24T06:11:00;8.48;;;4.78;;
44228;SDS011;29904;51.058;5.378;2023-04-24T06:13:26;8.85;;;5.00;;
44228;SDS011;29904;51.058;5.378;2023-04-24T06:15:52;8.18;;;5.40;;
44228;SDS011;29904;51.058;5.378;2023-04-24T06:18:18;8.55;;;5.78;;
44228;SDS011;29904;51.058;5.378;2023-04-24T06:20:45;9.20;;;6.20;;
44228;SDS011;29904;51.058;5.378;2023-04-24T06:23:11;8.98;;;5.85;;
44228;SDS011;29904;51.058;5.378;2023-04-24T06:25:37;11.23;;;6.18;;
44228;SDS011;29904;51.058;5.378;2023-04-24T06:28:03;9.23;;;5.97;;
44228;SDS011;29904;51.058;5.378;2023-04-24T06:30:29;9.48;;;6.15;;
44228;SDS011;29904;51.058;5.378;2023-04-24T06:32:55;11.02;;;6.60;;
44228;SDS011;29904;51.058;5.378;2023-04-24T06:35:21;9.45;;;5.90;;
44228;SDS011;29904;51.058;5.378;2023-04-24T06:37:47;10.13;;;6.50;;
44228;SDS011;29904;51.058;5.378;2023-04-24T06:40:12;9.20;;;6.10;;
44228;SDS011;29904;51.058;5.378;2023-04-24T06:42:38;9.93;;;6.00;;
44228;SDS011;29904;51.058;5.378;2023-04-24T06:45:04;7.63;;;5.30;;
44228;SDS011;29904;51.058;5.378;2023-04-24T06:47:30;11.02;;;6.35;;
44228;SDS011;29904;51.058;5.378;2023-04-24T06:49:56;7.80;;;5.20;;
44228;SDS011;29904;51.058;5.378;2023-04-24T06:52:22;8.25;;;5.15;;
44228;SDS011;29904;51.058;5.378;2023-04-24T06:54:47;8.68;;;5.05;;
44228;SDS011;29904;51.058;5.378;2023-04-24T06:57:13;8.07;;;5.10;;
44228;SDS011;29904;51.058;5.378;2023-04-24T06:59:41;8.82;;;5.25;;
44228;SDS011;29904;51.058;5.378;2023-04-24T07:02:07;6.95;;;5.10;;
44228;SDS011;29904;51.058;5.378;2023-04-24T07:04:33;8.20;;;5.00;;
44228;SDS011;29904;51.058;5.378;2023-04-24T07:06:59;9.32;;;5.63;;
44228;SDS011;29904;51.058;5.378;2023-04-24T07:09:25;9.55;;;5.43;;
44228;SDS011;29904;51.058;5.378;2023-04-24T07:11:51;10.68;;;5.43;;
44228;SDS011;29904;51.058;5.378;2023-04-24T07:14:18;9.90;;;5.60;;
44228;SDS011;29904;51.058;5.378;2023-04-24T07:16:44;10.82;;;5.80;;
44228;SDS011;29904;51.058;5.378;2023-04-24T07:19:10;10.73;;;5.30;;
44228;SDS011;29904;51.058;5.378;2023-04-24T07:21:36;9.30;;;4.93;;
44228;SDS011;29904;51.058;5.378;2023-04-24T07:24:02;10.60;;;5.33;;
44228;SDS011;29904;51.058;5.378;2023-04-24T07:26:29;9.47;;;5.13;;
44228;SDS011;29904;51.058;5.378;2023-04-24T07:28:55;9.10;;;5.22;;
44228;SDS011;29904;51.058;5.378;2023-04-24T07:31:21;9.63;;;5.00;;
44228;SDS011;29904;51.058;5.378;2023-04-24T07:33:47;8.65;;;4.88;;
44228;SDS011;29904;51.058;5.378;2023-04-24T07:36:13;9.00;;;5.35;;
44228;SDS011;29904;51.058;5.378;2023-04-24T07:38:43;8.52;;;5.28;;
44228;SDS011;29904;51.058;5.378;2023-04-24T07:41:13;9.55;;;5.00;;
44228;SDS011;29904;51.058;5.378;2023-04-24T07:43:39;8.05;;;4.80;;
44228;SDS011;29904;51.058;5.378;2023-04-24T07:46:05;7.68;;;4.70;;
44228;SDS011;29904;51.058;5.378;2023-04-24T07:48:31;9.45;;;4.72;;
44228;SDS011;29904;51.058;5.378;2023-04-24T07:50:57;7.83;;;5.10;;
44228;SDS011;29904;51.058;5.378;2023-04-24T07:53:23;10.87;;;4.73;;
44228;SDS011;29904;51.058;5.378;2023-04-24T07:55:49;9.48;;;4.50;;
44228;SDS011;29904;51.058;5.378;2023-04-24T07:58:15;9.18;;;4.40;;
44228;SDS011;29904;51.058;5.378;2023-04-24T08:00:41;7.05;;;4.20;;
44228;SDS011;29904;51.058;5.378;2023-04-24T08:03:06;8.80;;;4.57;;
44228;SDS011;29904;51.058;5.378;2023-04-24T08:05:32;8.20;;;4.30;;
44228;SDS011;29904;51.058;5.378;2023-04-24T08:07:58;8.13;;;4.40;;
44228;SDS011;29904;51.058;5.378;2023-04-24T08:10:24;7.33;;;4.17;;
44228;SDS011;29904;51.058;5.378;2023-04-24T08:12:51;9.23;;;4.70;;
44228;SDS011;29904;51.058;5.378;2023-04-24T08:15:17;8.77;;;4.78;;
44228;SDS011;29904;51.058;5.378;2023-04-24T08:17:43;8.05;;;4.43;;
44228;SDS011;29904;51.058;5.378;2023-04-24T08:20:09;7.97;;;4.50;;
44228;SDS011;29904;51.058;5.378;2023-04-24T08:22:39;7.68;;;4.53;;
44228;SDS011;29904;51.058;5.378;2023-04-24T08:25:05;8.07;;;4.40;;
44228;SDS011;29904;51.058;5.378;2023-04-24T08:27:32;8.03;;;4.27;;
44228;SDS011;29904;51.058;5.378;2023-04-24T08:29:58;7.50;;;4.30;;
44228;SDS011;29904;51.058;5.378;2023-04-24T08:32:24;6.43;;;3.75;;
44228;SDS011;29904;51.058;5.378;2023-04-24T08:34:53;7.45;;;4.50;;
44228;SDS011;29904;51.058;5.378;2023-04-24T08:37:21;8.88;;;4.72;;
44228;SDS011;29904;51.058;5.378;2023-04-24T08:39:51;9.82;;;4.65;;
44228;SDS011;29904;51.058;5.378;2023-04-24T08:42:18;9.52;;;4.38;;
44228;SDS011;29904;51.058;5.378;2023-04-24T08:44:44;10.43;;;4.82;;
44228;SDS011;29904;51.058;5.378;2023-04-24T08:47:11;7.13;;;3.92;;
44228;SDS011;29904;51.058;5.378;2023-04-24T08:49:37;7.57;;;4.00;;
44228;SDS011;29904;51.058;5.378;2023-04-24T08:52:07;9.82;;;3.97;;
44228;SDS011;29904;51.058;5.378;2023-04-24T08:54:33;10.50;;;4.05;;
44228;SDS011;29904;51.058;5.378;2023-04-24T08:57:00;9.77;;;4.15;;
44228;SDS011;29904;51.058;5.378;2023-04-24T08:59:28;12.57;;;3.70;;
44228;SDS011;29904;51.058;5.378;2023-04-24T09:01:56;9.05;;;3.25;;
44228;SDS011;29904;51.058;5.378;2023-04-24T09:04:22;9.98;;;3.10;;
44228;SDS011;29904;51.058;5.378;2023-04-24T09:06:53;9.55;;;3.67;;
44228;SDS011;29904;51.058;5.378;2023-04-24T09:09:21;8.00;;;3.57;;
44228;SDS011;29904;51.058;5.378;2023-04-24T09:11:48;11.60;;;3.85;;
44228;SDS011;29904;51.058;5.378;2023-04-24T09:14:15;8.75;;;3.30;;
44228;SDS011;29904;51.058;5.378;2023-04-24T09:16:42;8.30;;;3.13;;
44228;SDS011;29904;51.058;5.378;2023-04-24T09:19:08;8.48;;;3.00;;
44228;SDS011;29904;51.058;5.378;2023-04-24T09:21:34;9.18;;;3.03;;
44228;SDS011;29904;51.058;5.378;2023-04-24T09:24:01;10.18;;;3.15;;
44228;SDS011;29904;51.058;5.378;2023-04-24T09:26:32;10.20;;;2.90;;
44228;SDS011;29904;51.058;5.378;2023-04-24T09:29:00;8.50;;;3.00;;
44228;SDS011;29904;51.058;5.378;2023-04-24T09:31:27;8.63;;;2.83;;
44228;SDS011;29904;51.058;5.378;2023-04-24T09:34:01;7.85;;;2.50;;
44228;SDS011;29904;51.058;5.378;2023-04-24T09:36:34;7.50;;;2.70;;
44228;SDS011;29904;51.058;5.378;2023-04-24T09:39:05;6.13;;;2.63;;
44228;SDS011;29904;51.058;5.378;2023-04-24T09:41:33;7.63;;;2.73;;
44228;SDS011;29904;51.058;5.378;2023-04-24T09:46:59;8.50;;;2.75;;
44228;SDS011;29904;51.058;5.378;2023-04-24T09:49:26;5.90;;;2.30;;
44228;SDS011;29904;51.058;5.378;2023-04-24T09:52:03;7.80;;;2.90;;
44228;SDS011;29904;51.058;5.378;2023-04-24T09:54:29;7.40;;;3.10;;
44228;SDS011;29904;51.058;5.378;2023-04-24T09:56:54;9.77;;;3.65;;
44228;SDS011;29904;51.058;5.378;2023-04-24T09:59:21;10.82;;;3.50;;
44228;SDS011;29904;51.058;5.378;2023-04-24T10:01:47;6.97;;;3.00;;
44228;SDS011;29904;51.058;5.378;2023-04-24T10:04:23;10.05;;;3.58;;
44228;SDS011;29904;51.058;5.378;2023-04-24T10:06:50;9.98;;;3.60;;
44228;SDS011;29904;51.058;5.378;2023-04-24T10:09:18;9.30;;;3.17;;
44228;SDS011;29904;51.058;5.378;2023-04-24T10:11:48;8.85;;;3.28;;
44228;SDS011;29904;51.058;5.378;2023-04-24T10:14:20;10.05;;;3.90;;
44228;SDS011;29904;51.058;5.378;2023-04-24T10:16:46;10.40;;;3.63;;
44228;SDS011;29904;51.058;5.378;2023-04-24T10:19:14;12.40;;;3.70;;
44228;SDS011;29904;51.058;5.378;2023-04-24T10:21:40;7.72;;;3.20;;
44228;SDS011;29904;51.058;5.378;2023-04-24T10:24:08;10.65;;;3.40;;
44228;SDS011;29904;51.058;5.378;2023-04-24T10:26:35;9.23;;;3.20;;
44228;SDS011;29904;51.058;5.378;2023-04-24T10:29:02;10.15;;;3.50;;
44228;SDS011;29904;51.058;5.378;2023-04-24T10:31:31;9.33;;;3.30;;
44228;SDS011;29904;51.058;5.378;2023-04-24T10:33:58;10.27;;;3.03;;
44228;SDS011;29904;51.058;5.378;2023-04-24T10:36:25;8.90;;;3.03;;
44228;SDS011;29904;51.058;5.378;2023-04-24T10:38:54;8.82;;;2.90;;
44228;SDS011;29904;51.058;5.378;2023-04-24T10:41:22;8.38;;;2.72;;
44228;SDS011;29904;51.058;5.378;2023-04-24T10:44:10;8.52;;;3.20;;
44228;SDS011;29904;51.058;5.378;2023-04-24T10:46:38;6.83;;;2.40;;
44228;SDS011;29904;51.058;5.378;2023-04-24T10:49:07;6.70;;;2.60;;
44228;SDS011;29904;51.058;5.378;2023-04-24T10:51:46;10.40;;;2.95;;
44228;SDS011;29904;51.058;5.378;2023-04-24T10:54:36;10.40;;;3.20;;
44228;SDS011;29904;51.058;5.378;2023-04-24T10:59:47;12.37;;;3.13;;
44228;SDS011;29904;51.058;5.378;2023-04-24T11:02:14;7.93;;;2.63;;
44228;SDS011;29904;51.058;5.378;2023-04-24T11:04:41;11.43;;;2.78;;
44228;SDS011;29904;51.058;5.378;2023-04-24T11:07:10;10.82;;;2.60;;
44228;SDS011;29904;51.058;5.378;2023-04-24T11:09:36;6.57;;;2.35;;
44228;SDS011;29904;51.058;5.378;2023-04-24T11:12:08;7.68;;;2.30;;
44228;SDS011;29904;51.058;5.378;2023-04-24T11:17:32;7.37;;;2.50;;
44228;SDS011;29904;51.058;5.378;2023-04-24T11:20:09;7.72;;;2.30;;
44228;SDS011;29904;51.058;5.378;2023-04-24T11:22:37;9.13;;;2.90;;
44228;SDS011;29904;51.058;5.378;2023-04-24T11:25:08;8.45;;;2.47;;
44228;SDS011;29904;51.058;5.378;2023-04-24T11:27:40;5.60;;;2.45;;
44228;SDS011;29904;51.058;5.378;2023-04-24T11:30:08;7.28;;;2.85;;
44228;SDS011;29904;51.058;5.378;2023-04-24T11:35:16;7.90;;;3.22;;
44228;SDS011;29904;51.058;5.378;2023-04-24T11:37:44;8.85;;;2.50;;
44228;SDS011;29904;51.058;5.378;2023-04-24T11:40:12;6.70;;;2.35;;
44228;SDS011;29904;51.058;5.378;2023-04-24T11:42:41;9.13;;;2.75;;
44228;SDS011;29904;51.058;5.378;2023-04-24T11:45:18;7.65;;;2.63;;
44228;SDS011;29904;51.058;5.378;2023-04-24T11:47:46;7.95;;;2.20;;
44228;SDS011;29904;51.058;5.378;2023-04-24T11:50:13;6.47;;;2.30;;
44228;SDS011;29904;51.058;5.378;2023-04-24T11:52:40;6.43;;;2.10;;
44228;SDS011;29904;51.058;5.378;2023-04-24T11:55:12;5.93;;;1.90;;
44228;SDS011;29904;51.058;5.378;2023-04-24T11:57:52;6.70;;;2.00;;
44228;SDS011;29904;51.058;5.378;2023-04-24T12:00:23;6.50;;;2.23;;
44228;SDS011;29904;51.058;5.378;2023-04-24T12:03:11;3.20;;;1.40;;
44228;SDS011;29904;51.058;5.378;2023-04-24T12:05:37;7.15;;;1.90;;
44228;SDS011;29904;51.058;5.378;2023-04-24T12:08:03;4.10;;;1.40;;
44228;SDS011;29904;51.058;5.378;2023-04-24T12:10:30;4.22;;;1.45;;
44228;SDS011;29904;51.058;5.378;2023-04-24T12:12:58;6.00;;;1.50;;
44228;SDS011;29904;51.058;5.378;2023-04-24T12:15:25;7.13;;;1.92;;
44228;SDS011;29904;51.058;5.378;2023-04-24T12:17:52;5.00;;;1.73;;
44228;SDS011;29904;51.058;5.378;2023-04-24T12:20:23;5.50;;;1.63;;
44228;SDS011;29904;51.058;5.378;2023-04-24T12:22:54;3.97;;;1.70;;
44228;SDS011;29904;51.058;5.378;2023-04-24T12:25:25;5.80;;;2.00;;
44228;SDS011;29904;51.058;5.378;2023-04-24T12:27:54;4.68;;;1.77;;
44228;SDS011;29904;51.058;5.378;2023-04-24T12:30:39;5.82;;;1.60;;
44228;SDS011;29904;51.058;5.378;2023-04-24T12:33:18;4.37;;;1.73;;
44228;SDS011;29904;51.058;5.378;2023-04-24T12:35:45;4.15;;;1.88;;
44228;SDS011;29904;51.058;5.378;2023-04-24T12:38:11;4.87;;;2.03;;
44228;SDS011;29904;51.058;5.378;2023-04-24T12:40:38;4.25;;;1.60;;
44228;SDS011;29904;51.058;5.378;2023-04-24T12:43:16;6.95;;;1.60;;
44228;SDS011;29904;51.058;5.378;2023-04-24T12:45:43;3.47;;;1.50;;
44228;SDS011;29904;51.058;5.378;2023-04-24T12:48:12;4.28;;;1.52;;
44228;SDS011;29904;51.058;5.378;2023-04-24T12:50:39;4.70;;;1.48;;
44228;SDS011;29904;51.058;5.378;2023-04-24T12:53:05;4.65;;;1.50;;
44228;SDS011;29904;51.058;5.378;2023-04-24T12:55:32;4.43;;;1.65;;
44228;SDS011;29904;51.058;5.378;2023-04-24T12:57:58;6.65;;;1.33;;
44228;SDS011;29904;51.058;5.378;2023-04-24T13:00:24;4.22;;;1.40;;
44228;SDS011;29904;51.058;5.378;2023-04-24T13:02:50;2.92;;;1.50;;
44228;SDS011;29904;51.058;5.378;2023-04-24T13:05:16;3.33;;;1.30;;
44228;SDS011;29904;51.058;5.378;2023-04-24T13:07:42;4.35;;;1.63;;
44228;SDS011;29904;51.058;5.378;2023-04-24T13:10:08;3.87;;;1.70;;
44228;SDS011;29904;51.058;5.378;2023-04-24T13:12:34;5.88;;;1.80;;
44228;SDS011;29904;51.058;5.378;2023-04-24T13:15:00;4.28;;;1.63;;
44228;SDS011;29904;51.058;5.378;2023-04-24T13:17:26;4.57;;;1.90;;
44228;SDS011;29904;51.058;5.378;2023-04-24T13:19:54;3.75;;;1.70;;
44228;SDS011;29904;51.058;5.378;2023-04-24T13:22:20;5.85;;;1.65;;
44228;SDS011;29904;51.058;5.378;2023-04-24T13:24:46;3.75;;;1.80;;
44228;SDS011;29904;51.058;5.378;2023-04-24T13:27:13;4.82;;;1.80;;
44228;SDS011;29904;51.058;5.378;2023-04-24T13:29:40;2.90;;;1.10;;
44228;SDS011;29904;51.058;5.378;2023-04-24T13:32:06;5.55;;;1.05;;
44228;SDS011;29904;51.058;5.378;2023-04-24T13:34:32;3.15;;;1.20;;
44228;SDS011;29904;51.058;5.378;2023-04-24T13:36:59;3.38;;;1.10;;
44228;SDS011;29904;51.058;5.378;2023-04-24T13:39:25;4.43;;;1.30;;
44228;SDS011;29904;51.058;5.378;2023-04-24T13:41:52;2.55;;;1.10;;
44228;SDS011;29904;51.058;5.378;2023-04-24T13:44:18;3.73;;;0.90;;
44228;SDS011;29904;51.058;5.378;2023-04-24T13:46:46;3.25;;;1.05;;
44228;SDS011;29904;51.058;5.378;2023-04-24T13:49:13;1.98;;;1.10;;
44228;SDS011;29904;51.058;5.378;2023-04-24T13:51:40;2.85;;;1.33;;
44228;SDS011;29904;51.058;5.378;2023-04-24T13:54:06;3.38;;;1.40;;
44228;SDS011;29904;51.058;5.378;2023-04-24T13:56:32;4.53;;;1.37;;
44228;SDS011;29904;51.058;5.378;2023-04-24T13:58:57;4.67;;;1.60;;
44228;SDS011;29904;51.058;5.378;2023-04-24T14:01:23;3.03;;;1.73;;
44228;SDS011;29904;51.058;5.378;2023-04-24T14:03:53;4.33;;;1.80;;
44228;SDS011;29904;51.058;5.378;2023-04-24T14:06:20;4.40;;;1.70;;
44228;SDS011;29904;51.058;5.378;2023-04-24T14:08:47;2.95;;;1.50;;
44228;SDS011;29904;51.058;5.378;2023-04-24T14:11:13;6.85;;;1.77;;
44228;SDS011;29904;51.058;5.378;2023-04-24T14:13:40;3.55;;;1.60;;
44228;SDS011;29904;51.058;5.378;2023-04-24T14:16:06;2.27;;;1.30;;
44228;SDS011;29904;51.058;5.378;2023-04-24T14:18:32;2.93;;;1.40;;
44228;SDS011;29904;51.058;5.378;2023-04-24T14:20:58;5.40;;;1.43;;
44228;SDS011;29904;51.058;5.378;2023-04-24T14:23:24;3.17;;;1.43;;
44228;SDS011;29904;51.058;5.378;2023-04-24T14:25:50;3.67;;;1.37;;
44228;SDS011;29904;51.058;5.378;2023-04-24T14:28:17;3.13;;;1.30;;
44228;SDS011;29904;51.058;5.378;2023-04-24T14:30:44;3.63;;;1.50;;
44228;SDS011;29904;51.058;5.378;2023-04-24T14:33:10;2.97;;;1.33;;
44228;SDS011;29904;51.058;5.378;2023-04-24T14:35:37;3.55;;;1.60;;
44228;SDS011;29904;51.058;5.378;2023-04-24T14:38:02;3.17;;;1.70;;
44228;SDS011;29904;51.058;5.378;2023-04-24T14:40:28;3.17;;;1.50;;
44228;SDS011;29904;51.058;5.378;2023-04-24T14:42:54;4.63;;;1.75;;
44228;SDS011;29904;51.058;5.378;2023-04-24T14:45:22;5.35;;;1.60;;
44228;SDS011;29904;51.058;5.378;2023-04-24T14:47:47;3.43;;;1.53;;
44228;SDS011;29904;51.058;5.378;2023-04-24T14:50:13;3.40;;;1.47;;
44228;SDS011;29904;51.058;5.378;2023-04-24T14:52:39;3.85;;;1.50;;